createdAt,value
2022-11-27T00:01:51.605Z,3.88
2022-11-27T00:04:18.370Z,3.72
2022-11-27T00:06:45.351Z,3.78
2022-11-27T00:09:39.187Z,3.70
2022-11-27T00:13:49.371Z,3.63
2022-11-27T00:27:23.808Z,3.68
2022-11-27T00:29:50.398Z,3.76
2022-11-27T00:32:50.724Z,3.83
2022-11-27T00:38:16.375Z,3.75
2022-11-27T00:40:43.027Z,3.78
2022-11-27T00:43:10.092Z,3.68
2022-11-27T00:45:36.670Z,3.64
2022-11-27T00:48:05.092Z,3.69
2022-11-27T00:50:34.479Z,3.68
2022-11-27T00:53:01.229Z,3.70
2022-11-27T00:55:27.887Z,3.76
2022-11-27T00:57:54.613Z,3.78
2022-11-27T01:00:22.335Z,3.83
2022-11-27T01:02:49.860Z,3.84
2022-11-27T01:05:19.951Z,3.93
2022-11-27T01:07:54.593Z,3.88
2022-11-27T01:10:32.102Z,3.90
2022-11-27T01:13:04.912Z,3.93
2022-11-27T01:23:46.175Z,3.75
2022-11-27T01:27:15.272Z,3.70
2022-11-27T01:36:16.926Z,3.58
2022-11-27T01:38:47.756Z,3.61
2022-11-27T01:41:24.395Z,3.63
2022-11-27T01:43:52.398Z,3.70
2022-11-27T01:46:31.088Z,3.61
2022-11-27T01:49:22.689Z,3.64
2022-11-27T01:51:57.452Z,3.50
2022-11-27T01:54:31.585Z,3.47
2022-11-27T01:57:06.607Z,3.38
2022-11-27T01:59:33.869Z,3.43
2022-11-27T02:02:03.420Z,3.42
2022-11-27T02:04:30.769Z,3.44
2022-11-27T02:06:59.617Z,3.53
2022-11-27T02:09:28.177Z,3.35
2022-11-27T02:12:25.171Z,3.32
2022-11-27T02:15:08.090Z,3.33
2022-11-27T02:17:49.855Z,3.23
2022-11-27T02:20:43.330Z,3.23
2022-11-27T02:23:12.888Z,3.17
2022-11-27T02:25:57.719Z,3.25
2022-11-27T02:28:34.630Z,3.31
2022-11-27T02:31:31.270Z,3.21
2022-11-27T02:34:09.386Z,3.17
2022-11-27T02:36:39.551Z,3.17
2022-11-27T02:39:12.235Z,3.31
2022-11-27T02:42:06.139Z,3.18
2022-11-27T02:44:39.202Z,3.21
2022-11-27T02:47:06.350Z,3.15
2022-11-27T02:49:36.463Z,3.15
2022-11-27T02:52:04.630Z,3.29
2022-11-27T02:54:32.336Z,3.15
2022-11-27T02:57:18.712Z,3.23
2022-11-27T02:59:45.826Z,3.20
2022-11-27T03:02:19.525Z,3.19
2022-11-27T03:04:52.667Z,3.19
2022-11-27T03:07:29.455Z,3.24
2022-11-27T03:10:03.513Z,3.25
2022-11-27T03:12:30.231Z,3.18
2022-11-27T03:14:57.028Z,3.26
2022-11-27T03:17:53.000Z,3.32
2022-11-27T03:20:22.025Z,3.30
2022-11-27T03:22:49.659Z,3.32
2022-11-27T03:25:16.610Z,3.33
2022-11-27T03:27:49.788Z,3.48
2022-11-27T03:30:16.511Z,3.44
2022-11-27T03:32:43.517Z,3.35
2022-11-27T03:35:12.768Z,3.37
2022-11-27T03:37:39.551Z,3.37
2022-11-27T03:41:41.054Z,3.42
2022-11-27T03:45:21.214Z,3.41
2022-11-27T03:48:23.490Z,3.39
2022-11-27T03:50:55.780Z,3.39
2022-11-27T03:53:38.650Z,3.35
2022-11-27T03:56:36.620Z,3.37
2022-11-27T03:59:22.766Z,3.43
2022-11-27T04:01:51.240Z,3.44
2022-11-27T04:04:23.214Z,3.40
2022-11-27T04:06:50.172Z,3.43
2022-11-27T04:09:17.159Z,3.26
2022-11-27T04:11:44.050Z,3.20
2022-11-27T04:14:10.784Z,3.17
2022-11-27T04:16:37.695Z,3.23
2022-11-27T04:19:07.046Z,3.29
2022-11-27T04:21:51.156Z,3.21
2022-11-27T04:24:17.910Z,3.23
2022-11-27T04:26:44.866Z,3.28
2022-11-27T04:29:11.525Z,3.32
2022-11-27T04:31:38.282Z,3.32
2022-11-27T04:34:12.695Z,3.32
2022-11-27T04:36:50.007Z,3.28
2022-11-27T04:39:18.525Z,3.20
2022-11-27T04:41:55.057Z,3.14
2022-11-27T04:44:24.248Z,3.15
2022-11-27T04:46:53.107Z,3.09
2022-11-27T04:49:22.472Z,3.13
2022-11-27T04:51:52.467Z,3.13
2022-11-27T04:54:25.431Z,3.14
2022-11-27T04:56:54.898Z,3.10
2022-11-27T04:59:28.092Z,3.09
2022-11-27T05:01:55.009Z,3.06
2022-11-27T05:04:32.674Z,3.03
2022-11-27T05:07:03.159Z,3.03
2022-11-27T05:09:29.786Z,3.04
2022-11-27T05:11:56.601Z,3.05
2022-11-27T05:14:29.246Z,3.05
2022-11-27T05:16:58.498Z,3.08
2022-11-27T05:19:31.165Z,3.00
2022-11-27T05:22:10.407Z,2.97
2022-11-27T05:24:37.100Z,3.02
2022-11-27T05:27:04.027Z,3.03
2022-11-27T05:29:30.672Z,3.07
2022-11-27T05:31:57.512Z,2.97
2022-11-27T05:34:24.436Z,2.92
2022-11-27T05:36:51.118Z,2.85
2022-11-27T05:39:17.711Z,2.71
2022-11-27T05:41:44.316Z,2.61
2022-11-27T05:44:15.210Z,2.56
2022-11-27T05:46:43.810Z,2.57
2022-11-27T05:49:15.442Z,2.57
2022-11-27T05:51:46.367Z,2.56
2022-11-27T05:54:17.520Z,2.55
2022-11-27T05:56:44.115Z,2.49
2022-11-27T05:59:10.992Z,2.51
2022-11-27T06:01:37.768Z,2.54
2022-11-27T06:04:04.528Z,2.54
2022-11-27T06:06:31.214Z,2.53
2022-11-27T06:08:57.686Z,2.53
2022-11-27T06:11:24.371Z,2.70
2022-11-27T06:13:51.026Z,2.46
2022-11-27T06:16:23.565Z,2.49
2022-11-27T06:18:54.812Z,2.50
2022-11-27T06:21:22.922Z,2.51
2022-11-27T06:23:49.777Z,2.47
2022-11-27T06:26:22.893Z,2.45
2022-11-27T06:28:50.165Z,2.47
2022-11-27T06:31:19.779Z,2.53
2022-11-27T06:33:48.030Z,2.44
2022-11-27T06:36:15.087Z,2.36
2022-11-27T06:38:41.732Z,2.41
2022-11-27T06:41:13.871Z,2.43
2022-11-27T06:43:40.741Z,2.38
2022-11-27T06:46:13.640Z,2.32
2022-11-27T06:48:40.354Z,2.28
2022-11-27T06:51:08.329Z,2.31
2022-11-27T06:53:37.452Z,2.31
2022-11-27T06:56:08.908Z,2.31
2022-11-27T06:58:36.102Z,2.30
2022-11-27T07:01:05.592Z,2.29
2022-11-27T07:03:32.084Z,2.22
2022-11-27T07:06:03.222Z,2.21
2022-11-27T07:08:30.267Z,2.20
2022-11-27T07:11:08.211Z,2.22
2022-11-27T07:13:34.974Z,2.31
2022-11-27T07:16:07.617Z,2.46
2022-11-27T07:18:40.463Z,2.64
2022-11-27T07:21:07.588Z,2.86
2022-11-27T07:23:34.149Z,3.06
2022-11-27T07:26:06.034Z,3.22
2022-11-27T07:28:32.556Z,3.29
2022-11-27T07:30:59.578Z,3.35
2022-11-27T07:33:26.515Z,3.42
2022-11-27T07:36:01.378Z,3.49
2022-11-27T07:38:27.924Z,3.45
2022-11-27T07:40:54.339Z,3.43
2022-11-27T07:43:20.861Z,3.46
2022-11-27T07:45:47.384Z,3.49
2022-11-27T07:48:13.811Z,3.62
2022-11-27T07:50:40.480Z,3.70
2022-11-27T07:53:06.881Z,3.71
2022-11-27T07:55:33.303Z,3.71
2022-11-27T07:57:59.721Z,3.95
2022-11-27T08:00:26.154Z,4.16
2022-11-27T08:02:52.570Z,4.41
2022-11-27T08:05:19.158Z,4.62
2022-11-27T08:07:45.680Z,4.89
2022-11-27T08:10:12.193Z,5.06
2022-11-27T08:12:38.732Z,5.22
2022-11-27T08:15:05.749Z,5.42
2022-11-27T08:17:34.508Z,5.49
2022-11-27T08:20:01.231Z,5.52
2022-11-27T08:22:27.778Z,5.53
2022-11-27T08:24:54.340Z,5.98
2022-11-27T08:27:20.744Z,6.40
2022-11-27T08:29:47.931Z,6.87
2022-11-27T08:32:14.643Z,7.00
2022-11-27T08:34:41.264Z,6.66
2022-11-27T08:37:08.153Z,6.34
2022-11-27T08:39:34.611Z,6.04
2022-11-27T08:42:01.202Z,5.82
2022-11-27T08:44:27.601Z,5.70
2022-11-27T08:46:54.059Z,5.80
2022-11-27T08:49:20.580Z,6.36
2022-11-27T08:51:46.983Z,6.87
2022-11-27T08:54:13.431Z,7.13
2022-11-27T08:56:39.842Z,7.24
2022-11-27T08:59:06.315Z,7.31
2022-11-27T09:01:33.323Z,7.37
2022-11-27T09:04:00.067Z,7.40
2022-11-27T09:06:29.461Z,7.29
2022-11-27T09:08:57.333Z,7.21
2022-11-27T09:11:23.801Z,7.50
2022-11-27T09:13:50.645Z,8.26
2022-11-27T09:16:22.210Z,8.75
2022-11-27T09:18:50.547Z,9.55
2022-11-27T09:21:18.459Z,9.90
2022-11-27T09:23:45.173Z,9.78
2022-11-27T09:26:14.372Z,9.63
2022-11-27T09:28:41.956Z,9.18
2022-11-27T09:31:11.239Z,9.03
2022-11-27T09:33:39.617Z,8.83
2022-11-27T09:36:16.199Z,8.84
2022-11-27T09:38:42.762Z,8.80
2022-11-27T09:41:11.981Z,8.70
2022-11-27T09:43:49.395Z,8.53
2022-11-27T09:46:26.050Z,8.70
2022-11-27T09:48:54.344Z,8.89
2022-11-27T09:51:20.669Z,8.97
2022-11-27T09:53:58.260Z,9.23
2022-11-27T09:56:25.117Z,9.35
2022-11-27T09:58:59.994Z,9.49
2022-11-27T10:01:39.224Z,9.26
2022-11-27T10:04:14.931Z,8.97
2022-11-27T10:06:54.494Z,8.77
2022-11-27T10:09:39.019Z,8.93
2022-11-27T10:12:21.931Z,9.50
2022-11-27T10:15:14.659Z,10.05
2022-11-27T10:17:52.242Z,10.26
2022-11-27T10:20:47.181Z,9.98
2022-11-27T10:23:59.098Z,9.37
2022-11-27T10:26:34.027Z,8.94
2022-11-27T10:29:19.139Z,8.67
2022-11-27T10:31:51.849Z,8.66
2022-11-27T10:34:37.043Z,8.68
2022-11-27T10:37:13.115Z,8.71
2022-11-27T10:40:09.330Z,9.20
2022-11-27T10:43:02.119Z,9.74
2022-11-27T10:45:44.341Z,10.38
2022-11-27T10:48:12.438Z,10.86
2022-11-27T10:50:39.449Z,10.97
2022-11-27T10:53:14.797Z,10.97
2022-11-27T10:55:59.903Z,11.29
2022-11-27T10:58:34.827Z,11.44
2022-11-27T11:01:09.883Z,11.68
2022-11-27T11:03:36.905Z,11.62
2022-11-27T11:06:31.013Z,11.77
2022-11-27T11:09:04.093Z,11.52
2022-11-27T11:11:30.562Z,11.24
2022-11-27T11:13:57.149Z,11.02
2022-11-27T11:16:34.972Z,10.74
2022-11-27T11:19:02.567Z,10.43
2022-11-27T11:21:33.189Z,10.52
2022-11-27T11:24:06.311Z,10.50
2022-11-27T11:26:40.290Z,10.48
2022-11-27T11:29:36.228Z,10.70
2022-11-27T11:32:07.877Z,10.83
2022-11-27T11:34:35.082Z,10.99
2022-11-27T11:37:05.255Z,11.14
2022-11-27T11:40:10.770Z,11.32
2022-11-27T11:42:57.299Z,11.57
2022-11-27T11:45:26.527Z,11.53
2022-11-27T11:47:57.459Z,11.55
2022-11-27T11:50:31.681Z,11.44
2022-11-27T11:53:31.964Z,11.33
2022-11-27T11:56:16.351Z,11.00
2022-11-27T11:59:16.982Z,10.74
2022-11-27T12:02:06.141Z,10.69
2022-11-27T12:05:03.636Z,10.52
2022-11-27T12:08:05.008Z,10.51
2022-11-27T12:10:35.779Z,10.56
2022-11-27T12:13:34.493Z,10.84
2022-11-27T12:16:28.765Z,11.02
2022-11-27T12:19:13.927Z,11.32
2022-11-27T12:22:14.321Z,11.54
2022-11-27T12:25:14.992Z,11.71
2022-11-27T12:28:07.409Z,11.63
2022-11-27T12:31:04.707Z,11.68
2022-11-27T12:33:48.327Z,11.52
2022-11-27T12:36:30.057Z,11.67
2022-11-27T12:39:18.221Z,11.76
2022-11-27T12:41:44.532Z,11.53
2022-11-27T12:44:48.109Z,11.37
2022-11-27T12:47:39.950Z,11.46
2022-11-27T12:50:21.121Z,11.36
2022-11-27T12:52:57.079Z,11.41
2022-11-27T12:55:29.002Z,11.37
2022-11-27T12:58:07.085Z,11.15
2022-11-27T13:00:39.186Z,11.07
2022-11-27T13:03:14.094Z,11.10
2022-11-27T13:05:50.165Z,11.19
2022-11-27T13:08:26.386Z,11.23
2022-11-27T13:10:57.276Z,11.12
2022-11-27T13:13:34.081Z,11.09
2022-11-27T13:16:11.077Z,11.09
2022-11-27T13:18:41.497Z,10.99
2022-11-27T13:21:15.447Z,11.13
2022-11-27T13:23:42.079Z,11.10
2022-11-27T13:26:26.268Z,11.01
2022-11-27T13:28:58.307Z,11.03
2022-11-27T13:31:29.540Z,10.87
2022-11-27T13:34:07.127Z,10.93
2022-11-27T13:36:39.674Z,10.68
2022-11-27T13:39:06.909Z,10.72
2022-11-27T13:41:41.542Z,10.67
2022-11-27T13:44:26.120Z,10.62
2022-11-27T13:46:56.839Z,10.56
2022-11-27T13:49:32.602Z,10.64
2022-11-27T13:52:12.259Z,10.78
2022-11-27T13:54:39.305Z,10.93
2022-11-27T13:57:14.749Z,11.02
2022-11-27T13:59:41.411Z,11.07
2022-11-27T14:02:09.025Z,11.16
2022-11-27T14:04:50.606Z,11.32
2022-11-27T14:07:21.459Z,11.37
2022-11-27T14:09:52.920Z,11.31
2022-11-27T14:12:27.149Z,11.32
2022-11-27T14:15:16.227Z,11.33
2022-11-27T14:17:45.165Z,11.38
2022-11-27T14:20:17.739Z,11.37
2022-11-27T14:23:11.106Z,11.39
2022-11-27T14:25:40.084Z,11.38
2022-11-27T14:28:21.829Z,11.31
2022-11-27T14:30:53.823Z,11.19
2022-11-27T14:33:25.954Z,11.06
2022-11-27T14:36:04.518Z,11.02
2022-11-27T14:38:33.377Z,10.93
2022-11-27T14:41:16.262Z,10.87
2022-11-27T14:43:42.741Z,10.75
2022-11-27T14:46:18.576Z,10.70
2022-11-27T14:48:54.840Z,10.61
2022-11-27T14:51:24.455Z,10.47
2022-11-27T14:53:56.759Z,10.33
2022-11-27T14:56:23.341Z,10.23
2022-11-27T14:58:54.980Z,10.17
2022-11-27T15:01:29.994Z,10.05
2022-11-27T15:03:57.306Z,10.01
2022-11-27T15:06:25.632Z,9.98
2022-11-27T15:09:15.796Z,9.92
2022-11-27T15:11:55.174Z,9.87
2022-11-27T15:14:22.588Z,9.80
2022-11-27T15:16:51.677Z,9.72
2022-11-27T15:19:37.626Z,9.66
2022-11-27T15:22:04.988Z,9.57
2022-11-27T15:24:34.302Z,9.50
2022-11-27T15:27:18.071Z,9.43
2022-11-27T15:29:53.551Z,9.35
2022-11-27T15:32:25.816Z,9.29
2022-11-27T15:34:53.500Z,9.22
2022-11-27T15:37:34.112Z,9.19
2022-11-27T15:40:01.835Z,9.20
2022-11-27T15:42:30.614Z,9.15
2022-11-27T15:44:58.421Z,9.11
2022-11-27T15:47:35.338Z,9.15
2022-11-27T15:50:03.305Z,9.10
2022-11-27T15:52:35.107Z,9.08
2022-11-27T16:00:14.357Z,8.99
2022-11-27T16:10:35.112Z,8.83
2022-11-27T16:17:17.312Z,8.77
2022-11-27T16:20:36.469Z,8.71
2022-11-27T16:24:48.533Z,8.67
2022-11-27T16:36:35.138Z,8.61
2022-11-27T16:37:18.572Z,8.63
2022-11-27T16:39:45.264Z,8.62
2022-11-27T16:42:12.059Z,8.61
2022-11-27T16:55:39.766Z,8.55
2022-11-27T16:58:06.187Z,8.58
2022-11-27T17:00:32.741Z,8.55
2022-11-27T17:03:08.066Z,8.46
2022-11-27T17:05:40.137Z,8.37
2022-11-27T17:19:41.962Z,8.24
2022-11-27T17:26:24.846Z,8.23
2022-11-27T17:36:26.939Z,8.00
2022-11-27T17:39:08.440Z,7.99
2022-11-27T17:41:43.998Z,8.01
2022-11-27T17:44:11.565Z,7.96
2022-11-27T17:46:40.065Z,7.93
2022-11-27T17:49:13.441Z,7.87
2022-11-27T17:51:43.743Z,7.83
2022-11-27T17:54:12.089Z,7.77
2022-11-27T17:56:39.328Z,7.71
2022-11-27T17:59:10.295Z,7.64
2022-11-27T18:51:44.912Z,7.53
2022-11-27T18:54:15.731Z,7.60
2022-11-27T18:56:45.418Z,7.66
2022-11-27T19:06:31.963Z,7.59
2022-11-27T19:09:09.597Z,7.61
2022-11-27T19:15:55.933Z,7.60
2022-11-27T19:22:49.453Z,7.60
2022-11-27T19:29:22.430Z,7.58
2022-11-27T19:31:49.462Z,7.56
2022-11-27T19:34:18.846Z,7.60
2022-11-27T19:36:45.367Z,7.64
2022-11-27T19:39:14.282Z,7.66
2022-11-27T19:41:44.093Z,7.66
2022-11-27T19:44:13.179Z,7.63
2022-11-27T19:46:39.871Z,7.60
2022-11-27T19:49:12.800Z,7.61
2022-11-27T19:51:39.508Z,7.58
2022-11-27T19:54:10.259Z,7.60
2022-11-27T19:56:39.878Z,7.58
2022-11-27T19:59:06.919Z,7.63
2022-11-27T20:01:38.375Z,7.62
2022-11-27T20:04:06.118Z,7.66
2022-11-27T20:06:41.612Z,7.70
2022-11-27T20:09:18.278Z,7.71
2022-11-27T20:11:44.974Z,7.72
2022-11-27T20:14:17.700Z,7.78
2022-11-27T20:16:46.807Z,7.73
2022-11-27T20:19:25.141Z,7.76
2022-11-27T20:21:51.731Z,7.80
2022-11-27T20:24:18.327Z,7.84
2022-11-27T20:26:44.863Z,7.85
2022-11-27T20:35:40.798Z,7.75
2022-11-27T20:38:07.883Z,7.80
2022-11-27T20:40:37.886Z,7.82
2022-11-27T20:43:04.371Z,7.78
2022-11-27T20:45:31.187Z,7.74
2022-11-27T20:47:58.073Z,7.69
2022-11-27T20:58:03.021Z,7.61
2022-11-27T21:00:59.157Z,7.60
2022-11-27T21:03:35.790Z,7.64
2022-11-27T21:09:54.694Z,7.63
2022-11-27T21:15:21.093Z,7.60
2022-11-27T21:17:59.154Z,7.57
2022-11-27T21:20:37.389Z,7.55
2022-11-27T21:27:08.998Z,7.42
2022-11-27T21:29:49.256Z,7.31
2022-11-27T21:32:18.101Z,7.26
2022-11-27T21:35:00.566Z,7.20
2022-11-27T21:37:46.159Z,7.11
2022-11-27T21:40:24.294Z,7.03
2022-11-27T21:42:52.095Z,6.96
2022-11-27T21:45:21.552Z,6.95
2022-11-27T21:52:38.728Z,6.91
2022-11-27T21:58:57.467Z,6.99
2022-11-27T22:05:10.766Z,7.04
2022-11-27T22:07:44.556Z,7.08
2022-11-27T22:14:06.518Z,7.18
2022-11-27T22:18:06.878Z,7.27
2022-11-27T22:24:19.018Z,7.41
2022-11-27T22:27:36.649Z,7.45
2022-11-27T22:30:09.385Z,7.44
2022-11-27T22:33:05.569Z,7.40
2022-11-27T22:35:32.304Z,7.36
2022-11-27T22:38:05.194Z,7.36
2022-11-27T22:40:31.734Z,7.36
2022-11-27T22:43:07.019Z,7.34
2022-11-27T22:45:34.075Z,7.33
2022-11-27T22:48:00.844Z,7.32
2022-11-27T22:50:29.977Z,7.28
2022-11-27T22:52:58.359Z,7.26
2022-11-27T22:55:25.443Z,7.29
2022-11-27T22:57:52.128Z,7.32
2022-11-27T23:00:19.656Z,7.33
2022-11-27T23:02:46.640Z,7.37
2022-11-27T23:05:13.288Z,7.38
2022-11-27T23:07:40.184Z,7.40
2022-11-27T23:10:09.356Z,7.37
2022-11-27T23:12:54.384Z,7.34
2022-11-27T23:18:46.356Z,7.31
2022-11-27T23:21:16.650Z,7.42
2022-11-27T23:24:01.903Z,7.46
2022-11-27T23:26:35.357Z,7.51
2022-11-27T23:29:02.871Z,7.50
2022-11-27T23:31:35.194Z,7.48
2022-11-27T23:34:04.437Z,7.48
2022-11-27T23:36:32.563Z,7.39
2022-11-27T23:50:16.585Z,7.32
2022-11-27T23:52:47.167Z,7.34
2022-11-27T23:55:20.367Z,7.44
2022-11-27T23:58:26.815Z,7.42
